sensor_id;sensor_type;location;lat;lon;timestamp;P1;durP1;ratioP1;P2;durP2;ratioP2
19189;SDS011;9727;50.200;19.038;2023-02-28T00:02:23;13.47;;;5.50;;
19189;SDS011;9727;50.200;19.038;2023-02-28T00:04:50;11.77;;;5.67;;
19189;SDS011;9727;50.200;19.038;2023-02-28T00:07:26;12.33;;;5.30;;
19189;SDS011;9727;50.200;19.038;2023-02-28T00:09:52;11.07;;;5.60;;
19189;SDS011;9727;50.200;19.038;2023-02-28T00:12:20;13.43;;;5.87;;
19189;SDS011;9727;50.200;19.038;2023-02-28T00:14:47;12.87;;;6.30;;
19189;SDS011;9727;50.200;19.038;2023-02-28T00:17:18;14.73;;;6.20;;
19189;SDS011;9727;50.200;19.038;2023-02-28T00:19:47;13.23;;;6.00;;
19189;SDS011;9727;50.200;19.038;2023-02-28T00:22:17;13.73;;;6.07;;
19189;SDS011;9727;50.200;19.038;2023-02-28T00:24:44;13.00;;;6.10;;
19189;SDS011;9727;50.200;19.038;2023-02-28T00:27:12;13.13;;;6.47;;
19189;SDS011;9727;50.200;19.038;2023-02-28T00:29:40;13.57;;;6.27;;
19189;SDS011;9727;50.200;19.038;2023-02-28T00:32:07;14.83;;;5.90;;
19189;SDS011;9727;50.200;19.038;2023-02-28T00:34:34;13.07;;;6.07;;
19189;SDS011;9727;50.200;19.038;2023-02-28T00:37:03;13.77;;;6.20;;
19189;SDS011;9727;50.200;19.038;2023-02-28T00:39:29;14.50;;;6.20;;
19189;SDS011;9727;50.200;19.038;2023-02-28T00:41:56;13.53;;;5.67;;
19189;SDS011;9727;50.200;19.038;2023-02-28T00:44:23;12.37;;;5.97;;
19189;SDS011;9727;50.200;19.038;2023-02-28T00:46:54;11.90;;;5.60;;
19189;SDS011;9727;50.200;19.038;2023-02-28T00:49:21;15.23;;;5.90;;
19189;SDS011;9727;50.200;19.038;2023-02-28T00:51:48;13.37;;;5.90;;
19189;SDS011;9727;50.200;19.038;2023-02-28T00:54:17;15.80;;;6.63;;
19189;SDS011;9727;50.200;19.038;2023-02-28T00:56:44;11.87;;;6.17;;
19189;SDS011;9727;50.200;19.038;2023-02-28T00:59:13;11.07;;;5.73;;
19189;SDS011;9727;50.200;19.038;2023-02-28T01:01:39;12.83;;;6.77;;
19189;SDS011;9727;50.200;19.038;2023-02-28T01:04:16;14.53;;;6.53;;
19189;SDS011;9727;50.200;19.038;2023-02-28T01:06:43;14.93;;;6.47;;
19189;SDS011;9727;50.200;19.038;2023-02-28T01:09:09;17.93;;;6.97;;
19189;SDS011;9727;50.200;19.038;2023-02-28T01:11:37;16.97;;;6.70;;
19189;SDS011;9727;50.200;19.038;2023-02-28T01:14:04;18.87;;;7.33;;
19189;SDS011;9727;50.200;19.038;2023-02-28T01:16:31;16.93;;;8.27;;
19189;SDS011;9727;50.200;19.038;2023-02-28T01:18:57;16.40;;;8.20;;
19189;SDS011;9727;50.200;19.038;2023-02-28T01:21:25;16.33;;;7.30;;
19189;SDS011;9727;50.200;19.038;2023-02-28T01:23:52;16.27;;;7.90;;
19189;SDS011;9727;50.200;19.038;2023-02-28T01:26:19;19.17;;;8.13;;
19189;SDS011;9727;50.200;19.038;2023-02-28T01:28:47;18.27;;;9.00;;
19189;SDS011;9727;50.200;19.038;2023-02-28T01:31:16;17.77;;;8.00;;
19189;SDS011;9727;50.200;19.038;2023-02-28T01:33:43;19.30;;;8.57;;
19189;SDS011;9727;50.200;19.038;2023-02-28T01:36:11;20.10;;;9.27;;
19189;SDS011;9727;50.200;19.038;2023-02-28T01:38:39;20.90;;;9.00;;
19189;SDS011;9727;50.200;19.038;2023-02-28T01:41:06;21.70;;;8.67;;
19189;SDS011;9727;50.200;19.038;2023-02-28T01:43:54;23.23;;;8.43;;
19189;SDS011;9727;50.200;19.038;2023-02-28T01:46:22;17.00;;;8.47;;
19189;SDS011;9727;50.200;19.038;2023-02-28T01:48:50;17.90;;;8.53;;
19189;SDS011;9727;50.200;19.038;2023-02-28T01:51:18;16.50;;;7.93;;
19189;SDS011;9727;50.200;19.038;2023-02-28T01:53:52;18.83;;;7.93;;
19189;SDS011;9727;50.200;19.038;2023-02-28T01:56:42;15.87;;;7.50;;
19189;SDS011;9727;50.200;19.038;2023-02-28T01:59:10;12.87;;;6.90;;
19189;SDS011;9727;50.200;19.038;2023-02-28T02:01:38;14.30;;;7.10;;
19189;SDS011;9727;50.200;19.038;2023-02-28T02:04:05;14.13;;;6.37;;
19189;SDS011;9727;50.200;19.038;2023-02-28T02:06:34;13.20;;;6.27;;
19189;SDS011;9727;50.200;19.038;2023-02-28T02:09:03;15.90;;;7.07;;
19189;SDS011;9727;50.200;19.038;2023-02-28T02:11:31;16.37;;;7.53;;
19189;SDS011;9727;50.200;19.038;2023-02-28T02:14:18;19.30;;;8.07;;
19189;SDS011;9727;50.200;19.038;2023-02-28T02:16:52;16.80;;;6.67;;
19189;SDS011;9727;50.200;19.038;2023-02-28T02:22:15;17.27;;;7.47;;
19189;SDS011;9727;50.200;19.038;2023-02-28T02:24:51;12.93;;;6.90;;
19189;SDS011;9727;50.200;19.038;2023-02-28T02:27:25;16.87;;;7.10;;
19189;SDS011;9727;50.200;19.038;2023-02-28T02:32:53;16.93;;;7.63;;
19189;SDS011;9727;50.200;19.038;2023-02-28T02:35:24;16.80;;;7.37;;
19189;SDS011;9727;50.200;19.038;2023-02-28T02:37:52;19.77;;;7.47;;
19189;SDS011;9727;50.200;19.038;2023-02-28T02:40:22;17.57;;;7.80;;
19189;SDS011;9727;50.200;19.038;2023-02-28T02:42:51;16.73;;;7.50;;
19189;SDS011;9727;50.200;19.038;2023-02-28T02:45:27;13.87;;;7.43;;
19189;SDS011;9727;50.200;19.038;2023-02-28T02:47:54;17.60;;;7.67;;
19189;SDS011;9727;50.200;19.038;2023-02-28T02:50:25;16.57;;;7.80;;
19189;SDS011;9727;50.200;19.038;2023-02-28T02:52:53;17.77;;;7.90;;
19189;SDS011;9727;50.200;19.038;2023-02-28T02:55:22;16.43;;;7.77;;
19189;SDS011;9727;50.200;19.038;2023-02-28T02:57:50;15.17;;;6.80;;
19189;SDS011;9727;50.200;19.038;2023-02-28T03:00:19;18.13;;;7.27;;
19189;SDS011;9727;50.200;19.038;2023-02-28T03:02:47;16.90;;;7.30;;
19189;SDS011;9727;50.200;19.038;2023-02-28T03:05:17;24.10;;;8.73;;
19189;SDS011;9727;50.200;19.038;2023-02-28T03:07:47;17.80;;;7.60;;
19189;SDS011;9727;50.200;19.038;2023-02-28T03:10:36;19.10;;;8.10;;
19189;SDS011;9727;50.200;19.038;2023-02-28T03:13:16;18.27;;;7.97;;
19189;SDS011;9727;50.200;19.038;2023-02-28T03:15:48;20.90;;;8.00;;
19189;SDS011;9727;50.200;19.038;2023-02-28T03:18:18;22.20;;;9.07;;
19189;SDS011;9727;50.200;19.038;2023-02-28T03:20:52;19.40;;;8.40;;
19189;SDS011;9727;50.200;19.038;2023-02-28T03:23:25;17.67;;;8.63;;
19189;SDS011;9727;50.200;19.038;2023-02-28T03:25:59;22.90;;;8.53;;
19189;SDS011;9727;50.200;19.038;2023-02-28T03:28:30;18.70;;;7.73;;
19189;SDS011;9727;50.200;19.038;2023-02-28T03:30:59;18.23;;;7.80;;
19189;SDS011;9727;50.200;19.038;2023-02-28T03:33:28;17.30;;;7.77;;
19189;SDS011;9727;50.200;19.038;2023-02-28T03:35:55;17.93;;;7.67;;
19189;SDS011;9727;50.200;19.038;2023-02-28T03:38:27;14.83;;;7.53;;
19189;SDS011;9727;50.200;19.038;2023-02-28T03:40:55;20.13;;;8.90;;
19189;SDS011;9727;50.200;19.038;2023-02-28T03:43:24;25.67;;;10.83;;
19189;SDS011;9727;50.200;19.038;2023-02-28T03:45:52;25.87;;;10.87;;
19189;SDS011;9727;50.200;19.038;2023-02-28T03:48:21;24.60;;;10.80;;
19189;SDS011;9727;50.200;19.038;2023-02-28T03:50:51;22.97;;;10.37;;
19189;SDS011;9727;50.200;19.038;2023-02-28T03:53:19;18.80;;;9.20;;
19189;SDS011;9727;50.200;19.038;2023-02-28T03:55:57;18.43;;;8.43;;
19189;SDS011;9727;50.200;19.038;2023-02-28T03:58:27;17.70;;;8.40;;
19189;SDS011;9727;50.200;19.038;2023-02-28T04:00:57;18.83;;;8.10;;
19189;SDS011;9727;50.200;19.038;2023-02-28T04:03:24;18.93;;;8.30;;
19189;SDS011;9727;50.200;19.038;2023-02-28T04:06:00;16.70;;;8.27;;
19189;SDS011;9727;50.200;19.038;2023-02-28T04:08:26;20.23;;;8.60;;
19189;SDS011;9727;50.200;19.038;2023-02-28T04:10:56;18.80;;;8.90;;
19189;SDS011;9727;50.200;19.038;2023-02-28T04:13:24;23.40;;;9.23;;
19189;SDS011;9727;50.200;19.038;2023-02-28T04:15:50;22.20;;;9.10;;
19189;SDS011;9727;50.200;19.038;2023-02-28T04:18:17;22.47;;;9.67;;
19189;SDS011;9727;50.200;19.038;2023-02-28T04:20:43;21.10;;;9.63;;
19189;SDS011;9727;50.200;19.038;2023-02-28T04:23:19;19.70;;;8.70;;
19189;SDS011;9727;50.200;19.038;2023-02-28T04:25:50;27.63;;;10.07;;
19189;SDS011;9727;50.200;19.038;2023-02-28T04:28:18;41.47;;;16.13;;
19189;SDS011;9727;50.200;19.038;2023-02-28T04:30:44;47.13;;;17.63;;
19189;SDS011;9727;50.200;19.038;2023-02-28T04:33:12;110.10;;;33.43;;
19189;SDS011;9727;50.200;19.038;2023-02-28T04:35:39;135.17;;;40.00;;
19189;SDS011;9727;50.200;19.038;2023-02-28T04:38:05;79.30;;;24.97;;
19189;SDS011;9727;50.200;19.038;2023-02-28T04:40:32;42.37;;;16.03;;
19189;SDS011;9727;50.200;19.038;2023-02-28T04:42:58;37.87;;;15.17;;
19189;SDS011;9727;50.200;19.038;2023-02-28T04:45:36;51.60;;;20.47;;
19189;SDS011;9727;50.200;19.038;2023-02-28T04:48:02;31.77;;;15.17;;
19189;SDS011;9727;50.200;19.038;2023-02-28T04:50:29;32.23;;;14.80;;
19189;SDS011;9727;50.200;19.038;2023-02-28T04:52:56;29.67;;;13.77;;
19189;SDS011;9727;50.200;19.038;2023-02-28T04:55:22;27.57;;;11.30;;
19189;SDS011;9727;50.200;19.038;2023-02-28T04:57:52;28.03;;;12.40;;
19189;SDS011;9727;50.200;19.038;2023-02-28T05:00:19;26.83;;;12.10;;
19189;SDS011;9727;50.200;19.038;2023-02-28T05:02:48;25.30;;;11.37;;
19189;SDS011;9727;50.200;19.038;2023-02-28T05:05:17;25.90;;;11.47;;
19189;SDS011;9727;50.200;19.038;2023-02-28T05:07:44;32.23;;;13.90;;
19189;SDS011;9727;50.200;19.038;2023-02-28T05:10:11;31.47;;;12.80;;
19189;SDS011;9727;50.200;19.038;2023-02-28T05:12:38;26.17;;;11.57;;
19189;SDS011;9727;50.200;19.038;2023-02-28T05:15:05;24.93;;;11.57;;
19189;SDS011;9727;50.200;19.038;2023-02-28T05:17:32;27.03;;;11.37;;
19189;SDS011;9727;50.200;19.038;2023-02-28T05:20:00;25.50;;;11.70;;
19189;SDS011;9727;50.200;19.038;2023-02-28T05:22:26;30.03;;;12.77;;
19189;SDS011;9727;50.200;19.038;2023-02-28T05:24:53;26.37;;;11.63;;
19189;SDS011;9727;50.200;19.038;2023-02-28T05:27:19;38.73;;;12.73;;
19189;SDS011;9727;50.200;19.038;2023-02-28T05:29:52;28.03;;;12.40;;
19189;SDS011;9727;50.200;19.038;2023-02-28T05:32:19;32.13;;;12.53;;
19189;SDS011;9727;50.200;19.038;2023-02-28T05:34:46;29.40;;;12.80;;
19189;SDS011;9727;50.200;19.038;2023-02-28T05:37:27;28.20;;;12.13;;
19189;SDS011;9727;50.200;19.038;2023-02-28T05:39:53;26.10;;;11.40;;
19189;SDS011;9727;50.200;19.038;2023-02-28T05:42:20;29.40;;;12.03;;
19189;SDS011;9727;50.200;19.038;2023-02-28T05:44:50;31.43;;;13.10;;
19189;SDS011;9727;50.200;19.038;2023-02-28T05:47:17;29.50;;;13.40;;
19189;SDS011;9727;50.200;19.038;2023-02-28T05:49:44;32.70;;;13.10;;
19189;SDS011;9727;50.200;19.038;2023-02-28T05:52:10;29.57;;;14.03;;
19189;SDS011;9727;50.200;19.038;2023-02-28T05:54:47;30.27;;;13.97;;
19189;SDS011;9727;50.200;19.038;2023-02-28T05:57:14;32.57;;;14.07;;
19189;SDS011;9727;50.200;19.038;2023-02-28T05:59:41;33.63;;;14.00;;
19189;SDS011;9727;50.200;19.038;2023-02-28T06:02:08;32.57;;;14.23;;
19189;SDS011;9727;50.200;19.038;2023-02-28T06:04:37;35.33;;;14.97;;
19189;SDS011;9727;50.200;19.038;2023-02-28T06:07:03;34.17;;;14.60;;
19189;SDS011;9727;50.200;19.038;2023-02-28T06:09:30;32.30;;;15.50;;
19189;SDS011;9727;50.200;19.038;2023-02-28T06:11:58;35.27;;;15.73;;
19189;SDS011;9727;50.200;19.038;2023-02-28T06:14:25;32.53;;;16.23;;
19189;SDS011;9727;50.200;19.038;2023-02-28T06:16:53;34.20;;;15.83;;
19189;SDS011;9727;50.200;19.038;2023-02-28T06:19:19;35.87;;;15.97;;
19189;SDS011;9727;50.200;19.038;2023-02-28T06:21:48;32.03;;;15.27;;
19189;SDS011;9727;50.200;19.038;2023-02-28T06:24:17;36.03;;;16.60;;
19189;SDS011;9727;50.200;19.038;2023-02-28T06:26:44;36.10;;;15.30;;
19189;SDS011;9727;50.200;19.038;2023-02-28T06:29:13;33.37;;;15.93;;
19189;SDS011;9727;50.200;19.038;2023-02-28T06:31:43;33.73;;;15.87;;
19189;SDS011;9727;50.200;19.038;2023-02-28T06:34:10;34.27;;;15.50;;
19189;SDS011;9727;50.200;19.038;2023-02-28T06:36:37;37.57;;;16.53;;
19189;SDS011;9727;50.200;19.038;2023-02-28T06:39:04;36.47;;;17.10;;
19189;SDS011;9727;50.200;19.038;2023-02-28T06:41:31;38.13;;;16.77;;
19189;SDS011;9727;50.200;19.038;2023-02-28T06:44:17;44.60;;;17.70;;
19189;SDS011;9727;50.200;19.038;2023-02-28T06:46:44;36.27;;;16.90;;
19189;SDS011;9727;50.200;19.038;2023-02-28T06:49:12;41.53;;;17.83;;
19189;SDS011;9727;50.200;19.038;2023-02-28T06:51:41;47.63;;;17.97;;
19189;SDS011;9727;50.200;19.038;2023-02-28T06:54:11;45.57;;;18.47;;
19189;SDS011;9727;50.200;19.038;2023-02-28T06:56:40;38.63;;;17.33;;
19189;SDS011;9727;50.200;19.038;2023-02-28T06:59:06;41.50;;;18.23;;
19189;SDS011;9727;50.200;19.038;2023-02-28T07:01:54;36.37;;;16.33;;
19189;SDS011;9727;50.200;19.038;2023-02-28T07:04:22;38.20;;;17.27;;
19189;SDS011;9727;50.200;19.038;2023-02-28T07:06:50;39.83;;;17.00;;
19189;SDS011;9727;50.200;19.038;2023-02-28T07:09:17;34.53;;;16.40;;
19189;SDS011;9727;50.200;19.038;2023-02-28T07:11:44;43.93;;;17.03;;
19189;SDS011;9727;50.200;19.038;2023-02-28T07:14:10;37.90;;;16.40;;
19189;SDS011;9727;50.200;19.038;2023-02-28T07:16:40;32.73;;;15.67;;
19189;SDS011;9727;50.200;19.038;2023-02-28T07:19:21;33.37;;;14.80;;
19189;SDS011;9727;50.200;19.038;2023-02-28T07:21:52;34.93;;;15.40;;
19189;SDS011;9727;50.200;19.038;2023-02-28T07:24:18;34.90;;;15.50;;
19189;SDS011;9727;50.200;19.038;2023-02-28T07:26:45;33.27;;;15.57;;
19189;SDS011;9727;50.200;19.038;2023-02-28T07:29:15;36.80;;;16.07;;
19189;SDS011;9727;50.200;19.038;2023-02-28T07:31:42;35.90;;;15.57;;
19189;SDS011;9727;50.200;19.038;2023-02-28T07:36:53;35.27;;;15.20;;
19189;SDS011;9727;50.200;19.038;2023-02-28T07:39:20;36.87;;;15.23;;
19189;SDS011;9727;50.200;19.038;2023-02-28T07:41:47;31.70;;;14.60;;
19189;SDS011;9727;50.200;19.038;2023-02-28T07:44:15;36.37;;;14.60;;
19189;SDS011;9727;50.200;19.038;2023-02-28T07:46:42;36.03;;;14.40;;
19189;SDS011;9727;50.200;19.038;2023-02-28T07:49:09;29.93;;;14.33;;
19189;SDS011;9727;50.200;19.038;2023-02-28T07:51:35;31.43;;;15.20;;
19189;SDS011;9727;50.200;19.038;2023-02-28T07:54:06;32.80;;;14.83;;
19189;SDS011;9727;50.200;19.038;2023-02-28T07:56:34;33.90;;;15.07;;
19189;SDS011;9727;50.200;19.038;2023-02-28T07:59:02;31.17;;;14.03;;
19189;SDS011;9727;50.200;19.038;2023-02-28T08:01:28;34.20;;;15.90;;
19189;SDS011;9727;50.200;19.038;2023-02-28T08:03:56;26.73;;;13.97;;
19189;SDS011;9727;50.200;19.038;2023-02-28T08:06:24;35.03;;;15.30;;
19189;SDS011;9727;50.200;19.038;2023-02-28T08:08:50;33.00;;;15.70;;
19189;SDS011;9727;50.200;19.038;2023-02-28T08:11:18;32.10;;;14.30;;
19189;SDS011;9727;50.200;19.038;2023-02-28T08:13:45;35.90;;;15.40;;
19189;SDS011;9727;50.200;19.038;2023-02-28T08:16:17;31.53;;;14.43;;
19189;SDS011;9727;50.200;19.038;2023-02-28T08:18:47;34.20;;;14.53;;
19189;SDS011;9727;50.200;19.038;2023-02-28T08:21:15;37.77;;;14.73;;
19189;SDS011;9727;50.200;19.038;2023-02-28T08:23:42;30.50;;;14.07;;
19189;SDS011;9727;50.200;19.038;2023-02-28T08:26:09;35.57;;;14.73;;
19189;SDS011;9727;50.200;19.038;2023-02-28T08:28:43;35.90;;;14.60;;
19189;SDS011;9727;50.200;19.038;2023-02-28T08:31:11;28.90;;;13.10;;
19189;SDS011;9727;50.200;19.038;2023-02-28T08:33:38;28.57;;;13.77;;
19189;SDS011;9727;50.200;19.038;2023-02-28T08:36:07;24.73;;;12.13;;
19189;SDS011;9727;50.200;19.038;2023-02-28T08:38:35;25.10;;;13.20;;
19189;SDS011;9727;50.200;19.038;2023-02-28T08:41:02;23.70;;;13.00;;
19189;SDS011;9727;50.200;19.038;2023-02-28T08:43:31;28.73;;;13.43;;
19189;SDS011;9727;50.200;19.038;2023-02-28T08:46:00;21.77;;;11.80;;
19189;SDS011;9727;50.200;19.038;2023-02-28T08:48:27;24.70;;;11.33;;
19189;SDS011;9727;50.200;19.038;2023-02-28T08:50:54;26.67;;;12.10;;
19189;SDS011;9727;50.200;19.038;2023-02-28T08:53:23;22.93;;;11.07;;
19189;SDS011;9727;50.200;19.038;2023-02-28T08:55:59;21.07;;;10.20;;
19189;SDS011;9727;50.200;19.038;2023-02-28T08:58:26;18.87;;;10.27;;
19189;SDS011;9727;50.200;19.038;2023-02-28T09:00:53;15.90;;;8.37;;
19189;SDS011;9727;50.200;19.038;2023-02-28T09:03:22;17.50;;;9.73;;
19189;SDS011;9727;50.200;19.038;2023-02-28T09:05:52;21.00;;;10.60;;
19189;SDS011;9727;50.200;19.038;2023-02-28T09:08:19;20.63;;;9.73;;
19189;SDS011;9727;50.200;19.038;2023-02-28T09:10:45;17.97;;;9.23;;
19189;SDS011;9727;50.200;19.038;2023-02-28T09:13:13;16.40;;;8.60;;
19189;SDS011;9727;50.200;19.038;2023-02-28T09:15:39;24.90;;;10.43;;
19189;SDS011;9727;50.200;19.038;2023-02-28T09:18:06;18.13;;;9.70;;
19189;SDS011;9727;50.200;19.038;2023-02-28T09:20:38;19.30;;;9.13;;
19189;SDS011;9727;50.200;19.038;2023-02-28T09:23:05;19.33;;;9.13;;
19189;SDS011;9727;50.200;19.038;2023-02-28T09:25:32;19.93;;;9.43;;
19189;SDS011;9727;50.200;19.038;2023-02-28T09:27:59;16.90;;;9.30;;
19189;SDS011;9727;50.200;19.038;2023-02-28T09:30:26;17.43;;;8.43;;
19189;SDS011;9727;50.200;19.038;2023-02-28T09:32:53;14.77;;;8.10;;
19189;SDS011;9727;50.200;19.038;2023-02-28T09:35:19;18.43;;;8.37;;
19189;SDS011;9727;50.200;19.038;2023-02-28T09:37:49;14.70;;;8.43;;
19189;SDS011;9727;50.200;19.038;2023-02-28T09:40:20;14.33;;;7.97;;
19189;SDS011;9727;50.200;19.038;2023-02-28T09:42:51;11.67;;;7.10;;
19189;SDS011;9727;50.200;19.038;2023-02-28T09:45:21;14.07;;;7.30;;
19189;SDS011;9727;50.200;19.038;2023-02-28T09:47:52;16.67;;;6.53;;
19189;SDS011;9727;50.200;19.038;2023-02-28T09:50:23;10.70;;;6.50;;
19189;SDS011;9727;50.200;19.038;2023-02-28T09:52:56;15.27;;;7.77;;
19189;SDS011;9727;50.200;19.038;2023-02-28T09:55:26;11.70;;;7.53;;
19189;SDS011;9727;50.200;19.038;2023-02-28T09:57:55;14.50;;;6.73;;
19189;SDS011;9727;50.200;19.038;2023-02-28T10:00:27;12.50;;;7.33;;
19189;SDS011;9727;50.200;19.038;2023-02-28T10:03:03;12.60;;;7.30;;
19189;SDS011;9727;50.200;19.038;2023-02-28T10:05:31;14.57;;;8.07;;
19189;SDS011;9727;50.200;19.038;2023-02-28T10:08:07;15.17;;;7.53;;
19189;SDS011;9727;50.200;19.038;2023-02-28T10:10:37;15.63;;;8.50;;
19189;SDS011;9727;50.200;19.038;2023-02-28T10:13:06;15.37;;;8.63;;
19189;SDS011;9727;50.200;19.038;2023-02-28T10:15:38;15.37;;;8.27;;
19189;SDS011;9727;50.200;19.038;2023-02-28T10:18:06;20.07;;;10.20;;
19189;SDS011;9727;50.200;19.038;2023-02-28T10:20:37;12.30;;;7.70;;
19189;SDS011;9727;50.200;19.038;2023-02-28T10:23:09;19.43;;;9.47;;
19189;SDS011;9727;50.200;19.038;2023-02-28T10:25:53;15.87;;;8.27;;
19189;SDS011;9727;50.200;19.038;2023-02-28T10:28:21;17.27;;;8.80;;
19189;SDS011;9727;50.200;19.038;2023-02-28T10:30:48;17.67;;;9.17;;
19189;SDS011;9727;50.200;19.038;2023-02-28T10:33:28;14.77;;;8.30;;
19189;SDS011;9727;50.200;19.038;2023-02-28T10:35:56;18.00;;;8.97;;
19189;SDS011;9727;50.200;19.038;2023-02-28T10:38:27;16.03;;;8.70;;
19189;SDS011;9727;50.200;19.038;2023-02-28T10:41:02;15.00;;;8.23;;
19189;SDS011;9727;50.200;19.038;2023-02-28T10:43:29;17.13;;;9.73;;
19189;SDS011;9727;50.200;19.038;2023-02-28T10:45:58;21.47;;;10.57;;
19189;SDS011;9727;50.200;19.038;2023-02-28T10:48:34;20.27;;;10.60;;
19189;SDS011;9727;50.200;19.038;2023-02-28T10:51:03;21.73;;;10.53;;
19189;SDS011;9727;50.200;19.038;2023-02-28T10:56:19;20.30;;;11.10;;
19189;SDS011;9727;50.200;19.038;2023-02-28T10:58:52;20.67;;;10.50;;
19189;SDS011;9727;50.200;19.038;2023-02-28T11:01:20;19.60;;;10.20;;
19189;SDS011;9727;50.200;19.038;2023-02-28T11:03:47;18.83;;;10.70;;
19189;SDS011;9727;50.200;19.038;2023-02-28T11:06:18;16.93;;;9.57;;
19189;SDS011;9727;50.200;19.038;2023-02-28T11:08:48;17.77;;;9.50;;
19189;SDS011;9727;50.200;19.038;2023-02-28T11:11:17;18.90;;;9.60;;
19189;SDS011;9727;50.200;19.038;2023-02-28T11:13:46;19.90;;;9.67;;
19189;SDS011;9727;50.200;19.038;2023-02-28T11:16:16;20.40;;;9.80;;
19189;SDS011;9727;50.200;19.038;2023-02-28T11:18:48;16.63;;;9.27;;
19189;SDS011;9727;50.200;19.038;2023-02-28T11:21:20;18.07;;;9.63;;
19189;SDS011;9727;50.200;19.038;2023-02-28T11:23:48;18.90;;;9.90;;
19189;SDS011;9727;50.200;19.038;2023-02-28T11:29:08;17.80;;;9.20;;
19189;SDS011;9727;50.200;19.038;2023-02-28T11:31:36;19.30;;;9.67;;
19189;SDS011;9727;50.200;19.038;2023-02-28T11:34:11;19.57;;;9.43;;
19189;SDS011;9727;50.200;19.038;2023-02-28T11:36:48;17.47;;;9.90;;
19189;SDS011;9727;50.200;19.038;2023-02-28T11:39:15;19.03;;;9.27;;
19189;SDS011;9727;50.200;19.038;2023-02-28T11:41:49;18.47;;;9.37;;
19189;SDS011;9727;50.200;19.038;2023-02-28T11:44:26;17.87;;;9.60;;
19189;SDS011;9727;50.200;19.038;2023-02-28T11:46:56;20.40;;;10.27;;
19189;SDS011;9727;50.200;19.038;2023-02-28T11:49:30;21.25;;;12.35;;
19189;SDS011;9727;50.200;19.038;2023-02-28T11:52:01;19.40;;;10.30;;
19189;SDS011;9727;50.200;19.038;2023-02-28T11:54:36;20.97;;;10.77;;
19189;SDS011;9727;50.200;19.038;2023-02-28T11:57:15;20.73;;;11.53;;
19189;SDS011;9727;50.200;19.038;2023-02-28T11:59:51;19.67;;;10.57;;
19189;SDS011;9727;50.200;19.038;2023-02-28T12:02:44;17.43;;;9.93;;
19189;SDS011;9727;50.200;19.038;2023-02-28T12:05:20;20.13;;;10.50;;
19189;SDS011;9727;50.200;19.038;2023-02-28T12:07:50;19.73;;;11.30;;
19189;SDS011;9727;50.200;19.038;2023-02-28T12:10:21;22.13;;;10.90;;
19189;SDS011;9727;50.200;19.038;2023-02-28T12:12:54;18.80;;;10.53;;
19189;SDS011;9727;50.200;19.038;2023-02-28T12:15:29;21.73;;;10.77;;
19189;SDS011;9727;50.200;19.038;2023-02-28T12:18:03;21.57;;;10.60;;
19189;SDS011;9727;50.200;19.038;2023-02-28T12:20:34;19.57;;;11.00;;
19189;SDS011;9727;50.200;19.038;2023-02-28T12:23:10;19.27;;;11.47;;
19189;SDS011;9727;50.200;19.038;2023-02-28T12:25:39;21.50;;;11.30;;
19189;SDS011;9727;50.200;19.038;2023-02-28T12:28:13;20.03;;;11.20;;
19189;SDS011;9727;50.200;19.038;2023-02-28T12:30:43;21.30;;;11.13;;
19189;SDS011;9727;50.200;19.038;2023-02-28T12:33:14;19.10;;;9.97;;
19189;SDS011;9727;50.200;19.038;2023-02-28T12:35:44;24.20;;;12.17;;
19189;SDS011;9727;50.200;19.038;2023-02-28T12:38:14;24.70;;;12.37;;
19189;SDS011;9727;50.200;19.038;2023-02-28T12:40:45;21.27;;;10.93;;
19189;SDS011;9727;50.200;19.038;2023-02-28T12:43:14;40.13;;;19.93;;
19189;SDS011;9727;50.200;19.038;2023-02-28T12:45:45;25.50;;;13.10;;
19189;SDS011;9727;50.200;19.038;2023-02-28T12:48:18;18.97;;;10.27;;
19189;SDS011;9727;50.200;19.038;2023-02-28T12:50:52;21.17;;;10.27;;
19189;SDS011;9727;50.200;19.038;2023-02-28T12:53:27;16.07;;;9.30;;
19189;SDS011;9727;50.200;19.038;2023-02-28T12:55:57;17.40;;;9.70;;
19189;SDS011;9727;50.200;19.038;2023-02-28T12:58:29;19.73;;;10.87;;
19189;SDS011;9727;50.200;19.038;2023-02-28T13:03:48;22.33;;;12.03;;
19189;SDS011;9727;50.200;19.038;2023-02-28T13:06:28;20.93;;;10.93;;
19189;SDS011;9727;50.200;19.038;2023-02-28T13:09:04;19.30;;;10.37;;
19189;SDS011;9727;50.200;19.038;2023-02-28T13:11:32;19.07;;;10.30;;
19189;SDS011;9727;50.200;19.038;2023-02-28T13:14:00;17.90;;;10.27;;
19189;SDS011;9727;50.200;19.038;2023-02-28T13:16:27;20.80;;;11.13;;
19189;SDS011;9727;50.200;19.038;2023-02-28T13:21:45;20.43;;;10.97;;
19189;SDS011;9727;50.200;19.038;2023-02-28T13:24:14;19.67;;;11.20;;
19189;SDS011;9727;50.200;19.038;2023-02-28T13:27:11;17.50;;;10.03;;
19189;SDS011;9727;50.200;19.038;2023-02-28T13:29:50;17.23;;;10.30;;
19189;SDS011;9727;50.200;19.038;2023-02-28T13:32:30;18.10;;;10.50;;
19189;SDS011;9727;50.200;19.038;2023-02-28T13:37:45;22.20;;;10.13;;
19189;SDS011;9727;50.200;19.038;2023-02-28T13:40:28;18.53;;;10.13;;
19189;SDS011;9727;50.200;19.038;2023-02-28T13:42:55;19.67;;;9.93;;
19189;SDS011;9727;50.200;19.038;2023-02-28T13:45:23;19.13;;;9.60;;
19189;SDS011;9727;50.200;19.038;2023-02-28T13:47:53;16.03;;;9.47;;
19189;SDS011;9727;50.200;19.038;2023-02-28T13:50:22;20.40;;;10.03;;
19189;SDS011;9727;50.200;19.038;2023-02-28T13:53:19;21.90;;;9.97;;
19189;SDS011;9727;50.200;19.038;2023-02-28T13:55:56;18.23;;;9.50;;
19189;SDS011;9727;50.200;19.038;2023-02-28T14:03:56;18.47;;;9.07;;
19189;SDS011;9727;50.200;19.038;2023-02-28T14:06:25;17.00;;;8.97;;
19189;SDS011;9727;50.200;19.038;2023-02-28T14:08:55;18.07;;;9.43;;
19189;SDS011;9727;50.200;19.038;2023-02-28T14:11:24;18.30;;;9.70;;
19189;SDS011;9727;50.200;19.038;2023-02-28T14:13:52;16.90;;;8.97;;
19189;SDS011;9727;50.200;19.038;2023-02-28T14:16:21;15.73;;;8.50;;
19189;SDS011;9727;50.200;19.038;2023-02-28T14:18:55;19.77;;;9.17;;
19189;SDS011;9727;50.200;19.038;2023-02-28T14:21:23;16.33;;;9.43;;
19189;SDS011;9727;50.200;19.038;2023-02-28T14:27:00;17.83;;;9.70;;
19189;SDS011;9727;50.200;19.038;2023-02-28T14:29:33;18.23;;;9.53;;
19189;SDS011;9727;50.200;19.038;2023-02-28T14:32:10;17.53;;;10.13;;
19189;SDS011;9727;50.200;19.038;2023-02-28T14:34:41;29.43;;;12.40;;
19189;SDS011;9727;50.200;19.038;2023-02-28T14:37:13;22.63;;;11.63;;
19189;SDS011;9727;50.200;19.038;2023-02-28T14:39:41;24.20;;;11.83;;
19189;SDS011;9727;50.200;19.038;2023-02-28T14:45:00;20.07;;;10.50;;
19189;SDS011;9727;50.200;19.038;2023-02-28T14:47:27;26.20;;;12.70;;
19189;SDS011;9727;50.200;19.038;2023-02-28T14:49:55;20.30;;;11.37;;
19189;SDS011;9727;50.200;19.038;2023-02-28T14:52:22;24.60;;;13.23;;
19189;SDS011;9727;50.200;19.038;2023-02-28T14:54:51;23.43;;;10.83;;
19189;SDS011;9727;50.200;19.038;2023-02-28T14:57:21;19.17;;;9.20;;
19189;SDS011;9727;50.200;19.038;2023-02-28T15:00:01;16.63;;;9.77;;
19189;SDS011;9727;50.200;19.038;2023-02-28T15:02:30;18.10;;;10.10;;
19189;SDS011;9727;50.200;19.038;2023-02-28T15:04:58;18.60;;;10.40;;
19189;SDS011;9727;50.200;19.038;2023-02-28T15:07:25;18.47;;;10.10;;
19189;SDS011;9727;50.200;19.038;2023-02-28T15:10:08;17.33;;;10.37;;
19189;SDS011;9727;50.200;19.038;2023-02-28T15:12:35;21.20;;;11.53;;
19189;SDS011;9727;50.200;19.038;2023-02-28T15:15:14;20.57;;;9.80;;
19189;SDS011;9727;50.200;19.038;2023-02-28T15:17:41;16.80;;;9.37;;
19189;SDS011;9727;50.200;19.038;2023-02-28T15:20:10;17.23;;;9.80;;